^^
Meteo Knjazevac Station Historical Data
Daily Summary for April 5, 2022 Units:  English    Metric   Both
Daily Weekly Monthly Yearly Custom
  High: Low: Average:
Temperature: 47.3 °F 37.9 °F 40.4 °F
Dew Point: 43.1 °F 37.4 °F 39.3 °F
Humidity: 99% 85% 96%
Wind Speed: 9.6mph 1.5mph 4.6mph
Wind Gust: 12mph - -
Wind- - WSW
Pressure: 30.36 in 30.30 in -
Precipitation: 0.00 in    
Historical Graphs
 
 
Tabular Data for April 5, 2022
Time Temperature Dew Point Pressure Wind Wind Speed Wind Gust Humidity Rainfall Rate (Hourly) solar Conditions
00:04 37.9 °F 37.4 °F 30.35 in North 3.4 mph 5 mph 98% 0.00 in 0 W/m2
00:09 37.9 °F 37.4 °F 30.35 in North 4.1 mph 4 mph 98% 0.00 in 0 W/m2
00:14 37.9 °F 37.4 °F 30.35 in North 4 mph 5 mph 98% 0.00 in 0 W/m2
00:19 37.9 °F 37.4 °F 30.35 in North 6 mph 6 mph 98% 0.00 in 0 W/m2
00:24 37.9 °F 37.4 °F 30.35 in NNW 2.7 mph 7 mph 98% 0.00 in 0 W/m2
00:29 37.9 °F 37.4 °F 30.35 in NNW 1.7 mph 3 mph 98% 0.00 in 0 W/m2
00:34 37.9 °F 37.4 °F 30.35 in North 2.9 mph 2.7 mph 98% 0.00 in 0 W/m2
00:39 37.9 °F 37.4 °F 30.35 in North 3.8 mph 3 mph 98% 0.00 in 0 W/m2
00:44 37.9 °F 37.4 °F 30.35 in North 6.1 mph 7 mph 98% 0.00 in 0 W/m2
00:49 37.9 °F 37.4 °F 30.35 in North 4.6 mph 8 mph 98% 0.00 in 0 W/m2
00:54 37.9 °F 37.4 °F 30.36 in North 5.1 mph 5 mph 98% 0.00 in 0 W/m2
00:59 37.9 °F 37.4 °F 30.36 in North 5.4 mph 6 mph 98% 0.00 in 0 W/m2
01:04 37.9 °F 37.4 °F 30.36 in North 4.9 mph 6 mph 98% 0.00 in 0 W/m2
01:09 37.9 °F 37.4 °F 30.36 in NNW 3.5 mph 6 mph 98% 0.00 in 0 W/m2
01:14 37.9 °F 37.6 °F 30.36 in NNW 4.1 mph 5 mph 98.6% 0.00 in 0 W/m2
01:19 37.9 °F 37.5 °F 30.36 in North 7.1 mph 8 mph 98.3% 0.00 in 0 W/m2
01:24 37.9 °F 37.6 °F 30.36 in North 3.5 mph 8 mph 98.5% 0.00 in 0 W/m2
01:29 37.9 °F 37.7 °F 30.36 in North 3.2 mph 3 mph 99% 0.00 in 0 W/m2
01:34 37.9 °F 37.7 °F 30.36 in North 4.1 mph 4 mph 99% 0.00 in 0 W/m2
01:39 37.9 °F 37.7 °F 30.36 in North 4.5 mph 5 mph 99% 0.00 in 0 W/m2
01:44 37.9 °F 37.7 °F 30.36 in North 3.8 mph 6 mph 99% 0.00 in 0 W/m2
01:49 37.9 °F 37.7 °F 30.36 in North 4.6 mph 5 mph 99% 0.00 in 0 W/m2
01:54 37.9 °F 37.7 °F 30.36 in North 5.2 mph 6 mph 99% 0.00 in 0 W/m2
01:59 37.9 °F 37.7 °F 30.36 in North 5.8 mph 6 mph 99% 0.00 in 0 W/m2
02:04 37.9 °F 37.7 °F 30.36 in North 4.9 mph 8 mph 99% 0.00 in 0 W/m2
02:09 37.9 °F 37.7 °F 30.36 in North 3.2 mph 6 mph 99% 0.00 in 0 W/m2
02:14 37.9 °F 37.7 °F 30.36 in North 2.9 mph 4 mph 99% 0.00 in 0 W/m2
02:19 37.9 °F 37.7 °F 30.35 in North 4.5 mph 5 mph 99% 0.00 in 0 W/m2
02:24 37.9 °F 37.7 °F 30.35 in North 3.8 mph 6 mph 99% 0.00 in 0 W/m2
02:29 37.9 °F 37.7 °F 30.35 in North 4.4 mph 6 mph 99% 0.00 in 0 W/m2
02:34 38 °F 37.8 °F 30.35 in North 3.2 mph 5 mph 99% 0.00 in 0 W/m2
02:39 38 °F 37.8 °F 30.35 in North 3.4 mph 4 mph 99% 0.00 in 0 W/m2
02:44 38 °F 37.8 °F 30.34 in NNW 4.1 mph 4.2 mph 99% 0.00 in 0 W/m2
02:49 37.9 °F 37.7 °F 30.34 in NNW 4.9 mph 6 mph 99% 0.00 in 0 W/m2
02:54 38.1 °F 37.9 °F 30.34 in North 4.5 mph 6 mph 99% 0.00 in 0 W/m2
02:59 38.1 °F 37.9 °F 30.34 in North 5.1 mph 6 mph 99% 0.00 in 0 W/m2
03:04 38.1 °F 37.9 °F 30.34 in NNW 4.5 mph 6 mph 99% 0.00 in 0 W/m2
03:09 38.1 °F 37.9 °F 30.34 in NNW 3.3 mph 6 mph 99% 0.00 in 0 W/m2
03:14 38.1 °F 37.9 °F 30.34 in North 3.3 mph 4 mph 99% 0.00 in 0 W/m2
03:19 38.1 °F 37.9 °F 30.34 in North 2.5 mph 4 mph 99% 0.00 in 0 W/m2
03:24 38.1 °F 37.9 °F 30.34 in North 4.4 mph 3.4 mph 99% 0.00 in 0 W/m2
03:29 38.1 °F 37.9 °F 30.34 in North 5.3 mph 6 mph 99% 0.00 in 0 W/m2
03:34 38.1 °F 37.9 °F 30.34 in North 5.7 mph 6 mph 99% 0.00 in 0 W/m2
03:39 38.1 °F 37.8 °F 30.34 in North 5.8 mph 7 mph 98.5% 0.00 in 0 W/m2
03:44 38.1 °F 37.6 °F 30.34 in North 6 mph 7 mph 98% 0.00 in 0 W/m2
03:49 38.2 °F 37.8 °F 30.34 in NNW 3.5 mph 8 mph 98.5% 0.00 in 0 W/m2
03:54 38.1 °F 37.9 °F 30.34 in NNW 4.6 mph 6 mph 99% 0.00 in 0 W/m2
03:59 38.1 °F 37.9 °F 30.34 in North 3.5 mph 6 mph 99% 0.00 in 0 W/m2
04:04 38.2 °F 37.9 °F 30.34 in North 4.9 mph 5 mph 99% 0.00 in 0 W/m2
04:09 38.2 °F 37.9 °F 30.34 in NNW 5.8 mph 8 mph 99% 0.00 in 0 W/m2
04:14 38.3 °F 38 °F 30.34 in North 6.2 mph 6 mph 99% 0.00 in 0 W/m2
04:19 38.3 °F 38 °F 30.34 in North 7 mph 7 mph 98.8% 0.00 in 0 W/m2
04:24 38.3 °F 37.9 °F 30.34 in North 4.3 mph 8 mph 98.5% 0.00 in 0 W/m2
04:29 38.3 °F 38 °F 30.34 in NNW 4.1 mph 5 mph 98.8% 0.00 in 0 W/m2
04:34 38.3 °F 38 °F 30.34 in NNW 5.6 mph 7 mph 99% 0.00 in 0 W/m2
04:39 38.3 °F 38 °F 30.34 in North 5.4 mph 7 mph 99% 0.00 in 0 W/m2
04:44 38.3 °F 38 °F 30.34 in North 3.9 mph 7 mph 99% 0.00 in 0 W/m2
04:49 38.3 °F 38 °F 30.34 in NNW 2.2 mph 5 mph 99% 0.00 in 0 W/m2
04:54 38.3 °F 38 °F 30.34 in NNW 3.6 mph 3 mph 99% 0.00 in 0 W/m2
04:59 38.3 °F 38 °F 30.34 in NNW 3.6 mph 6 mph 99% 0.00 in 0 W/m2
05:04 38.3 °F 38 °F 30.34 in NNW 2.2 mph 6 mph 99% 0.00 in 0 W/m2
05:09 38.3 °F 38 °F 30.34 in NNW 2.5 mph 3 mph 99% 0.00 in 0 W/m2
05:14 38.3 °F 38 °F 30.34 in NNW 3.9 mph 3 mph 99% 0.00 in 0 W/m2
05:19 38.3 °F 38 °F 30.34 in NNW 4 mph 5 mph 99% 0.00 in 0 W/m2
05:24 38.2 °F 38 °F 30.34 in NNW 3.6 mph 7 mph 99% 0.00 in 0 W/m2
05:29 38.3 °F 38 °F 30.34 in NNW 2.2 mph 7 mph 99% 0.00 in 0 W/m2
05:34 38.3 °F 38 °F 30.34 in North 3.2 mph 3 mph 99% 0.00 in 0 W/m2
05:39 38.3 °F 38 °F 30.34 in North 3.6 mph 5 mph 98.8% 0.00 in 0 W/m2
05:44 38.3 °F 37.9 °F 30.34 in North 3.6 mph 5 mph 98.4% 0.00 in 0 W/m2
05:49 38.3 °F 37.8 °F 30.34 in North 3.3 mph 5 mph 98% 0.00 in 0 W/m2
05:54 38.3 °F 37.8 °F 30.34 in NNW 3.4 mph 3 mph 98% 0.00 in 0 W/m2
05:59 38.3 °F 37.8 °F 30.34 in NNW 5.4 mph 6 mph 98% 0.00 in 0 W/m2
06:04 38.3 °F 37.8 °F 30.34 in North 3.6 mph 7 mph 98% 0.00 in 0 W/m2
06:09 38.3 °F 37.8 °F 30.34 in North 4.5 mph 5 mph 98% 0.00 in 0 W/m2
06:14 38.3 °F 37.8 °F 30.34 in North 5.7 mph 5 mph 98% 0.00 in 0 W/m2
06:19 38.3 °F 37.8 °F 30.35 in North 3.6 mph 7 mph 98% 0.00 in 0 W/m2
06:24 38.3 °F 37.8 °F 30.35 in North 2.8 mph 5 mph 98% 0.00 in 0 W/m2
06:29 38.3 °F 37.8 °F 30.35 in NNW 1.6 mph 3 mph 98% 0.00 in 0 W/m2
06:34 38.3 °F 37.9 °F 30.35 in NNW 4.6 mph 3.1 mph 98.7% 0.00 in 0 W/m2
06:39 38.3 °F 38 °F 30.35 in NW 3.6 mph 6 mph 98.8% 0.00 in 0 W/m2
06:44 38.3 °F 37.8 °F 30.35 in NNW 4.7 mph 5 mph 98% 0.00 in 1 W/m2
06:49 38.3 °F 37.8 °F 30.35 in NNW 4.5 mph 6 mph 98% 0.00 in 1 W/m2
06:54 38.3 °F 37.8 °F 30.35 in NNW 3.7 mph 5 mph 98% 0.00 in 2 W/m2
06:59 38.5 °F 38 °F 30.35 in North 4 mph 5 mph 98% 0.00 in 3 W/m2
07:04 38.5 °F 38 °F 30.35 in NNW 3.5 mph 5 mph 98% 0.00 in 4 W/m2
07:09 38.5 °F 38 °F 30.35 in NNW 4.5 mph 5 mph 98% 0.00 in 6 W/m2
07:14 38.5 °F 38 °F 30.35 in NNW 3.4 mph 6 mph 98% 0.00 in 7 W/m2
07:19 38.5 °F 38 °F 30.35 in NW 2.5 mph 6 mph 98% 0.00 in 8 W/m2
07:24 38.5 °F 38.2 °F 30.35 in NNW 1.6 mph 5 mph 98.8% 0.00 in 11 W/m2
07:29 38.5 °F 38.1 °F 30.35 in North 2.9 mph 3 mph 98.4% 0.00 in 15 W/m2
07:34 38.5 °F 38 °F 30.35 in North 3.2 mph 4 mph 98% 0.00 in 20 W/m2
07:39 38.5 °F 38 °F 30.35 in North 6.2 mph 6 mph 98% 0.00 in 27 W/m2
07:44 38.6 °F 38.1 °F 30.35 in North 4.4 mph 7 mph 98% 0.00 in 29 W/m2
07:49 38.7 °F 38.1 °F 30.35 in North 2.5 mph 6 mph 98% 0.00 in 33 W/m2
07:54 38.7 °F 38.1 °F 30.35 in North 1.6 mph 3 mph 98% 0.00 in 34 W/m2
07:59 38.8 °F 38.3 °F 30.36 in NNW 2.6 mph 2 mph 98% 0.00 in 32 W/m2
08:04 38.8 °F 38.3 °F 30.36 in North 3.4 mph 5 mph 98% 0.00 in 34 W/m2
08:09 38.8 °F 38.2 °F 30.36 in North 4.4 mph 5 mph 97.4% 0.00 in 41 W/m2
08:14 38.9 °F 37.9 °F 30.36 in North 6.7 mph 7 mph 96% 0.00 in 40 W/m2
08:19 39 °F 38 °F 30.36 in North 7.8 mph 9 mph 96% 0.00 in 27 W/m2
08:24 39 °F 38 °F 30.36 in North 5.1 mph 8 mph 96% 0.00 in 29 W/m2
08:29 39 °F 38 °F 30.36 in North 5.1 mph 7 mph 96% 0.00 in 45 W/m2
08:34 39.1 °F 38.1 °F 30.36 in North 4.4 mph 6 mph 96% 0.00 in 55 W/m2
08:39 39.2 °F 38.2 °F 30.36 in North 5.3 mph 6 mph 96% 0.00 in 63 W/m2
08:44 39.2 °F 38.2 °F 30.36 in North 5.7 mph 7 mph 96% 0.00 in 73 W/m2
08:49 39.4 °F 38.3 °F 30.36 in North 3.5 mph 7 mph 96% 0.00 in 81 W/m2
08:54 39.5 °F 38.4 °F 30.36 in NNE 5.8 mph 7 mph 96% 0.00 in 77 W/m2
08:59 39.6 °F 38.6 °F 30.36 in NNE 4.8 mph 7 mph 96% 0.00 in 75 W/m2
09:04 39.7 °F 38.5 °F 30.36 in North 4.5 mph 6 mph 95.4% 0.00 in 56 W/m2
09:09 39.9 °F 38.6 °F 30.36 in North 2.9 mph 6 mph 95% 0.00 in 56 W/m2
09:14 39.9 °F 38.6 °F 30.36 in North 4.3 mph 4 mph 95% 0.00 in 53 W/m2
09:19 40.1 °F 38.8 °F 30.36 in North 4.9 mph 7 mph 95% 0.00 in 51 W/m2
09:24 40.1 °F 38.8 °F 30.36 in North 3.8 mph 5 mph 95% 0.00 in 63 W/m2
09:29 40.1 °F 38.8 °F 30.36 in North 6.6 mph 5.6 mph 95% 0.00 in 71 W/m2
09:34 40.3 °F 39 °F 30.36 in North 3.4 mph 8 mph 95% 0.00 in 72 W/m2
09:39 40.3 °F 39 °F 30.36 in North 4.5 mph 7 mph 95% 0.00 in 74 W/m2
09:44 40.5 °F 39.1 °F 30.36 in North 4.2 mph 7 mph 95% 0.00 in 63 W/m2
09:49 40.5 °F 39.1 °F 30.36 in North 3.5 mph 5 mph 94.8% 0.00 in 53 W/m2
09:54 40.6 °F 39.3 °F 30.36 in North 2.3 mph 4 mph 95% 0.00 in 61 W/m2
09:59 40.6 °F 39.2 °F 30.36 in North 3.5 mph 3 mph 94.8% 0.00 in 96 W/m2
10:04 40.7 °F 39.2 °F 30.36 in NNW 4.5 mph 5 mph 94.4% 0.00 in 112 W/m2
10:09 40.8 °F 39.5 °F 30.36 in North 4.8 mph 5 mph 94.8% 0.00 in 118 W/m2
10:14 41 °F 39.6 °F 30.36 in North 4.9 mph 7 mph 94.7% 0.00 in 120 W/m2
10:19 41.2 °F 39.6 °F 30.36 in North 2.4 mph 5 mph 94% 0.00 in 143 W/m2
10:24 41.4 °F 39.8 °F 30.36 in North 5.8 mph 4.9 mph 94% 0.00 in 157 W/m2
10:29 41.5 °F 39.9 °F 30.36 in North 6.3 mph 7 mph 94% 0.00 in 168 W/m2
10:34 41.8 °F 40.2 °F 30.35 in NNE 5.3 mph 7 mph 94% 0.00 in 148 W/m2
10:39 41.9 °F 40.3 °F 30.35 in NNE 4.9 mph 6 mph 94% 0.00 in 103 W/m2
10:44 41.9 °F 40.3 °F 30.35 in North 6.8 mph 7 mph 94% 0.00 in 94 W/m2
10:49 41.9 °F 40.1 °F 30.35 in North 7.6 mph 9 mph 93.4% 0.00 in 77 W/m2
10:54 41.9 °F 40 °F 30.35 in North 5.8 mph 9 mph 93.3% 0.00 in 94 W/m2
10:59 41.9 °F 40.3 °F 30.35 in North 5.9 mph 7 mph 94% 0.00 in 108 W/m2
11:04 41.9 °F 40.3 °F 30.34 in North 5.2 mph 6 mph 94% 0.00 in 156 W/m2
11:09 42.1 °F 40.5 °F 30.34 in North 5.5 mph 7 mph 94% 0.00 in 195 W/m2
11:14 42.3 °F 40.6 °F 30.34 in North 6.3 mph 7 mph 93.7% 0.00 in 178 W/m2
11:19 42.4 °F 40.6 °F 30.34 in North 5.1 mph 7 mph 93% 0.00 in 134 W/m2
11:24 42.5 °F 40.7 °F 30.34 in North 5.8 mph 6 mph 93% 0.00 in 157 W/m2
11:29 42.7 °F 40.8 °F 30.34 in North 5.9 mph 7 mph 93% 0.00 in 200 W/m2
11:34 43 °F 41.1 °F 30.34 in NNE 5.5 mph 7 mph 93% 0.00 in 255 W/m2
11:39 43.3 °F 41.4 °F 30.33 in North 5.4 mph 6 mph 93% 0.00 in 260 W/m2
11:44 43.5 °F 41.3 °F 30.33 in North 7.3 mph 8 mph 91.6% 0.00 in 239 W/m2
11:49 43.7 °F 41.2 °F 30.33 in NNE 5.3 mph 10 mph 91% 0.00 in 189 W/m2
11:54 43.9 °F 41.4 °F 30.33 in NNE 5.6 mph 5 mph 91% 0.00 in 196 W/m2
11:59 43.9 °F 41.4 °F 30.32 in North 4.2 mph 7 mph 91% 0.00 in 276 W/m2
12:04 44.1 °F 41.6 °F 30.32 in North 5.5 mph 6 mph 91% 0.00 in 294 W/m2
12:09 44.2 °F 41.6 °F 30.32 in North 5 mph 7 mph 90.3% 0.00 in 275 W/m2
12:14 44.4 °F 41.7 °F 30.32 in NNE 4.3 mph 7 mph 90% 0.00 in 319 W/m2
12:19 44.9 °F 42.1 °F 30.32 in North 6 mph 6 mph 90% 0.00 in 338 W/m2
12:24 45.1 °F 42.3 °F 30.32 in NNW 6.2 mph 8 mph 89.7% 0.00 in 394 W/m2
12:29 45.3 °F 42.3 °F 30.32 in North 6.2 mph 8 mph 89% 0.00 in 444 W/m2
12:34 45.8 °F 42.6 °F 30.31 in NNW 6.4 mph 8 mph 88.8% 0.00 in 437 W/m2
12:39 45.9 °F 42.7 °F 30.31 in NNW 5.6 mph 7 mph 88.7% 0.00 in 443 W/m2
12:44 46.1 °F 42.8 °F 30.31 in NNW 7.7 mph 6 mph 88.1% 0.00 in 403 W/m2
12:49 46.3 °F 43 °F 30.31 in NNW 7 mph 9 mph 88% 0.00 in 399 W/m2
12:54 46.7 °F 42.9 °F 30.31 in NNW 7.6 mph 8 mph 86.5% 0.00 in 371 W/m2
12:59 46.8 °F 42.8 °F 30.30 in NNW 5.5 mph 9 mph 86% 0.00 in 369 W/m2
13:04 46.9 °F 43 °F 30.30 in NNW 6.1 mph 6 mph 86% 0.00 in 360 W/m2
13:09 47.3 °F 43.1 °F 30.30 in North 6.3 mph 8 mph 85.3% 0.00 in 338 W/m2
13:14 47.3 °F 43 °F 30.30 in North 6.4 mph 8 mph 85% 0.00 in 323 W/m2
13:19 47.3 °F 43 °F 30.30 in North 6.8 mph 7.2 mph 85% 0.00 in 308 W/m2
13:24 47 °F 42.8 °F 30.30 in North 7.8 mph 10 mph 85% 0.00 in 284 W/m2
13:29 46.9 °F 42.8 °F 30.30 in North 5.8 mph 9 mph 85.2% 0.00 in 281 W/m2
13:34 46.9 °F 42.8 °F 30.30 in North 7.2 mph 6 mph 85.7% 0.00 in 276 W/m2
13:39 46.9 °F 42.9 °F 30.30 in North 5.8 mph 9 mph 85.8% 0.00 in 251 W/m2
13:44 46.5 °F 42.4 °F 30.30 in North 5.7 mph 7 mph 85.5% 0.00 in 243 W/m2
13:49 46.1 °F 42.2 °F 30.30 in North 7.5 mph 8 mph 86% 0.00 in 243 W/m2
13:54 45.7 °F 42.1 °F 30.30 in North 8.2 mph 11 mph 87.1% 0.00 in 181 W/m2
13:59 45.5 °F 42.2 °F 30.30 in North 6.7 mph 11 mph 88% 0.00 in 192 W/m2
14:04 45.4 °F 42.1 °F 30.30 in North 8.5 mph 9 mph 88% 0.00 in 150 W/m2
14:09 45.1 °F 42 °F 30.30 in North 9.6 mph 12 mph 88.7% 0.00 in 203 W/m2
14:14 44.8 °F 41.7 °F 30.30 in North 7.4 mph 12 mph 89% 0.00 in 108 W/m2
14:19 44.5 °F 41.5 °F 30.30 in North 5.6 mph 8 mph 89.2% 0.00 in 90 W/m2
14:24 44.3 °F 41.5 °F 30.30 in North 6 mph 8 mph 90% 0.00 in 78 W/m2
14:29 43.9 °F 41.1 °F 30.30 in North 6.9 mph 9 mph 90% 0.00 in 73 W/m2
14:34 43.6 °F 41.1 °F 30.30 in North 6.2 mph 8 mph 90.7% 0.00 in 64 W/m2
14:39 43.3 °F 40.9 °F 30.30 in NNW 6.4 mph 8 mph 91% 0.00 in 57 W/m2
14:44 43.1 °F 41.2 °F 30.30 in NNW 6.7 mph 8 mph 92.8% 0.00 in 59 W/m2
14:49 42.9 °F 41 °F 30.30 in NNW 6.7 mph 8 mph 93% 0.00 in 52 W/m2
14:54 42.6 °F 40.8 °F 30.30 in NNW 7 mph 9 mph 93.4% 0.00 in 43 W/m2
14:59 42.4 °F 40.8 °F 30.30 in NNW 6.1 mph 9 mph 94% 0.00 in 41 W/m2
15:04 42.3 °F 40.7 °F 30.30 in NNW 7.3 mph 8 mph 94% 0.00 in 35 W/m2
15:09 42.3 °F 40.8 °F 30.30 in NNW 6.3 mph 8 mph 94.5% 0.00 in 32 W/m2
15:14 42.1 °F 40.8 °F 30.30 in NNW 5.1 mph 8 mph 95% 0.00 in 30 W/m2
15:19 41.9 °F 40.6 °F 30.30 in NNW 5.3 mph 5 mph 95% 0.00 in 24 W/m2
15:24 41.7 °F 40.4 °F 30.30 in NNW 4.3 mph 7 mph 95% 0.00 in 21 W/m2
15:29 41.7 °F 40.6 °F 30.30 in NNW 5.1 mph 6 mph 95.8% 0.00 in 19 W/m2
15:34 41.5 °F 40.5 °F 30.30 in NNW 2.8 mph 6 mph 96% 0.00 in 15 W/m2
15:39 41.5 °F 40.4 °F 30.30 in NW 4.1 mph 3.4 mph 96% 0.00 in 12 W/m2
15:44 41.3 °F 40.2 °F 30.30 in WNW 4.2 mph 6 mph 96% 0.00 in 9 W/m2
15:49 41.1 °F 40.1 °F 30.30 in NW 4.8 mph 6 mph 96.4% 0.00 in 7 W/m2
15:54 41 °F 40.5 °F 30.30 in NW 5 mph 6 mph 98% 0.00 in 3 W/m2
15:59 40.8 °F 40.3 °F 30.30 in NW 3.9 mph 6 mph 98% 0.00 in 2 W/m2
16:04 40.8 °F 40.3 °F 30.30 in NW 4 mph 4 mph 98% 0.00 in 1 W/m2
16:09 40.7 °F 40.2 °F 30.30 in NW 4.2 mph 6 mph 98% 0.00 in 0 W/m2
16:14 40.6 °F 40.1 °F 30.30 in NW 3.9 mph 5 mph 98% 0.00 in 0 W/m2
16:19 40.6 °F 40.1 °F 30.30 in NW 2.9 mph 5 mph 98% 0.00 in 0 W/m2
16:24 40.6 °F 40.3 °F 30.30 in NW 3.6 mph 5 mph 98.5% 0.00 in 0 W/m2
16:29 40.6 °F 40.4 °F 30.30 in NNW 3.7 mph 5 mph 99% 0.00 in 0 W/m2
16:34 40.6 °F 40.4 °F 30.30 in NNW 4.4 mph 5 mph 99% 0.00 in 0 W/m2
16:39 40.6 °F 40.4 °F 30.30 in North 3.9 mph 7 mph 99% 0.00 in 0 W/m2
16:44 40.6 °F 40.4 °F 30.30 in North 4.1 mph 5 mph 99% 0.00 in 0 W/m2
16:49 40.5 °F 40.3 °F 30.30 in North 4 mph 5 mph 99% 0.00 in 0 W/m2
16:54 40.5 °F 40.2 °F 30.30 in North 4.6 mph 7 mph 99% 0.00 in 0 W/m2
16:59 40.5 °F 40.2 °F 30.30 in North 3.2 mph 8 mph 99% 0.00 in 0 W/m2
17:04 40.5 °F 40.2 °F 30.30 in North 3.8 mph 4 mph 99% 0.00 in 0 W/m2
17:09 40.4 °F 40.1 °F 30.30 in North 2.9 mph 7 mph 99% 0.00 in 0 W/m2
17:14 40.4 °F 40.1 °F 30.30 in North 3.5 mph 6 mph 99% 0.00 in 0 W/m2
17:19 40.3 °F 40 °F 30.30 in NNW 2.1 mph 3 mph 99% 0.00 in 0 W/m2
17:24 40.3 °F 40 °F 30.30 in NNW 2.3 mph 3 mph 99% 0.00 in 0 W/m2
17:29 40.3 °F 40 °F 30.30 in NNW 2.6 mph 3 mph 99% 0.00 in 0 W/m2
17:34 40.3 °F 40 °F 30.30 in NNW 2.7 mph 4 mph 99% 0.00 in 0 W/m2
17:39 40.2 °F 39.9 °F 30.30 in NNW 1.9 mph 3 mph 99% 0.00 in 0 W/m2
17:44 40.2 °F 39.8 °F 30.30 in North 2.1 mph 2 mph 99% 0.00 in 0 W/m2
17:49 40.1 °F 39.8 °F 30.30 in North 2.5 mph 3 mph 99% 0.00 in 0 W/m2
17:54 40.1 °F 39.8 °F 30.30 in North 1.5 mph 4 mph 99% 0.00 in 0 W/m2
17:59 40.1 °F 39.8 °F 30.30 in North 2.2 mph 3 mph 99% 0.00 in 0 W/m2
18:04 40.1 °F 39.8 °F 30.30 in North 3.2 mph 4 mph 99% 0.00 in 0 W/m2
18:09 40.1 °F 39.8 °F 30.30 in North 4 mph 6 mph 99% 0.00 in 0 W/m2
18:14 40.1 °F 39.8 °F 30.30 in North 2.9 mph 5 mph 99% 0.00 in 0 W/m2
Knjazevac, Serbia
Compliments of Weather Underground - 4 mb